CheckWX is a tool to help pilots better visualize weather data.  It is not intended as a substitute for an official pre-flight weather briefing.

06:14:36 UTC

EFVA METAR
Vaasa Airport
Vaasa, Finland
Current

25 mins ago

EFVA 250550Z AUTO 29004KT 260V320 CAVOK M02/M05 Q1003
Observed
Mar-25 @ 05:50 UTC
Wind
  • 290° at 4 KTS
Visibility
10,000+ meters
Flight Rules
VFR
Cloud Levels
  • Clear skies
Temperature
-2°C / 28°F
Dewpoint
-5°C / 23°F
Humidity
80%
Altimeter
29.62" Hg
Pressure
1002.92 hPa
Previous

55 mins ago

EFVA 250520Z AUTO 28005KT CAVOK M02/M05 Q1003
Observed
Mar-25 @ 05:20 UTC
Wind
  • 280° at 5 KTS
Visibility
10,000+ meters
Flight Rules
VFR
Cloud Levels
  • Clear skies
Temperature
-2°C / 28°F
Dewpoint
-5°C / 23°F
Humidity
80%
Altimeter
29.62" Hg
Pressure
1002.92 hPa
Previous

1 hour ago

EFVA 250450Z AUTO 29005KT CAVOK M02/M05 Q1003
Observed
Mar-25 @ 04:50 UTC
Wind
  • 290° at 5 KTS
Visibility
10,000+ meters
Flight Rules
VFR
Cloud Levels
  • Clear skies
Temperature
-2°C / 28°F
Dewpoint
-5°C / 23°F
Humidity
80%
Altimeter
29.62" Hg
Pressure
1002.92 hPa